Time;durP1;ratioP1;P1;durP2;ratioP2;P2;SDS_P1;SDS_P2;PMS_P1;PMS_P2;Temp;Humidity;BMP_temperature;BMP_pressure;BME280_temperature;BME280_humidity;BME280_pressure;Samples;Min_cycle;Max_cycle;Signal;HPM_P1;HPM_P2
2022/10/15 00:02:59;;;;;;;18.80;11.90;;;21.50;68.20;;;;;;214801;1299;25431;-63
2022/10/15 00:08:04;;;;;;;15.00;10.50;;;21.50;68.20;;;;;;215076;1284;24249;-61
2022/10/15 00:13:07;;;;;;;15.10;10.70;;;21.50;68.20;;;;;;215063;1291;25259;-61
2022/10/15 00:18:11;;;;;;;16.50;10.90;;;21.50;68.20;;;;;;215061;1300;22952;-63
2022/10/15 00:23:14;;;;;;;15.90;10.90;;;21.50;68.10;;;;;;214774;1297;22465;-61
2022/10/15 00:28:18;;;;;;;16.20;10.50;;;21.50;68.10;;;;;;215031;1300;24429;-63
2022/10/15 00:33:21;;;;;;;17.50;11.10;;;21.40;68.20;;;;;;215026;1287;22461;-62
2022/10/15 00:38:26;;;;;;;15.10;10.70;;;21.40;68.60;;;;;;215153;1300;23888;-65
2022/10/15 00:43:41;;;;;;;14.80;10.10;;;21.40;68.30;;;;;;214973;1285;22468;-61
2022/10/15 00:48:48;;;;;;;14.70;10.30;;;21.40;68.60;;;;;;215059;1284;22797;-64
2022/10/15 00:53:52;;;;;;;16.90;10.50;;;21.40;68.70;;;;;;215009;1289;22545;-61
2022/10/15 00:58:56;;;;;;;14.60;10.10;;;21.40;68.70;;;;;;215078;1294;22454;-63
2022/10/15 01:04:01;;;;;;;13.80;9.40;;;21.40;68.70;;;;;;215113;1282;22460;-61
2022/10/15 01:09:05;;;;;;;13.50;9.90;;;21.30;68.30;;;;;;215152;1286;22504;-62
2022/10/15 01:14:31;;;;;;;16.10;10.40;;;21.30;68.30;;;;;;215067;1288;22461;-61
2022/10/15 01:20:16;;;;;;;12.30;9.30;;;21.30;68.40;;;;;;214976;1295;22484;-63
2022/10/15 01:25:38;;;;;;;14.50;9.70;;;21.30;68.40;;;;;;214822;1291;25174;-62
2022/10/15 01:30:46;;;;;;;15.00;10.10;;;21.30;68.40;;;;;;214687;1300;23886;-65
2022/10/15 01:35:53;;;;;;;13.50;9.50;;;21.30;68.40;;;;;;214937;1284;22728;-63
2022/10/15 01:41:04;;;;;;;13.10;9.00;;;21.30;68.40;;;;;;215190;1285;26538;-64
2022/10/15 01:46:13;;;;;;;13.30;9.30;;;21.30;68.40;;;;;;214794;1295;22416;-62
2022/10/15 01:51:24;;;;;;;13.60;9.60;;;21.30;68.70;;;;;;214952;1286;22480;-60
2022/10/15 01:56:36;;;;;;;13.20;9.00;;;21.20;68.80;;;;;;214873;1285;22459;-60
2022/10/15 02:01:42;;;;;;;11.60;8.80;;;21.20;68.50;;;;;;214708;1278;22685;-62
2022/10/15 02:07:14;;;;;;;14.10;10.10;;;21.20;68.50;;;;;;214676;1289;22444;-61
2022/10/15 02:12:47;;;;;;;13.30;9.10;;;21.20;69.10;;;;;;214751;1294;23741;-64
2022/10/15 02:18:10;;;;;;;14.20;9.40;;;21.20;68.50;;;;;;214410;1282;25538;-62
2022/10/15 02:23:40;;;;;;;17.40;10.40;;;21.20;68.50;;;;;;214433;1288;22461;-61
2022/10/15 02:28:50;;;;;;;12.90;8.80;;;21.20;68.90;;;;;;214515;1289;24314;-61
2022/10/15 02:33:57;;;;;;;14.10;9.20;;;21.10;68.50;;;;;;214561;1295;22472;-60
2022/10/15 02:39:02;;;;;;;13.70;8.90;;;21.10;68.60;;;;;;214593;1282;22465;-61
2022/10/15 02:44:07;;;;;;;13.70;9.40;;;21.10;68.60;;;;;;214457;1280;22582;-66
2022/10/15 02:49:11;;;;;;;13.30;9.20;;;21.10;69.00;;;;;;214380;1284;22485;-61
2022/10/15 02:54:16;;;;;;;13.60;9.10;;;21.10;69.00;;;;;;214514;1280;24233;-62
2022/10/15 02:59:33;;;;;;;13.60;9.20;;;21.10;68.60;;;;;;214620;1300;22470;-61
2022/10/15 03:04:45;;;;;;;15.30;9.60;;;21.10;68.50;;;;;;214446;1289;25686;-62
2022/10/15 03:09:50;;;;;;;10.80;7.90;;;21.10;68.60;;;;;;214661;1303;25500;-63
2022/10/15 03:14:54;;;;;;;13.30;8.80;;;21.10;68.60;;;;;;214606;1300;24453;-60
2022/10/15 03:19:59;;;;;;;13.70;9.20;;;21.10;68.60;;;;;;215166;1289;22498;-63
2022/10/15 03:25:03;;;;;;;12.60;9.40;;;21.10;68.60;;;;;;214976;1300;26240;-61
2022/10/15 03:30:07;;;;;;;14.00;9.30;;;21.00;68.60;;;;;;214592;1289;23880;-61
2022/10/15 03:35:13;;;;;;;12.40;8.50;;;21.00;68.70;;;;;;215072;1286;23864;-60
2022/10/15 03:40:17;;;;;;;13.70;8.90;;;21.00;68.70;;;;;;215150;1294;24552;-61
2022/10/15 03:45:23;;;;;;;15.70;9.00;;;21.00;68.70;;;;;;215023;1292;25307;-61
2022/10/15 03:50:41;;;;;;;11.60;8.50;;;21.00;68.70;;;;;;214840;1293;24278;-61
2022/10/15 03:55:55;;;;;;;12.40;7.80;;;21.00;68.70;;;;;;214962;1303;25204;-62
2022/10/15 04:00:59;;;;;;;11.80;7.90;;;20.90;68.60;;;;;;215101;1296;22636;-61
2022/10/15 04:06:03;;;;;;;12.60;8.50;;;21.00;69.00;;;;;;215048;1278;22471;-60
2022/10/15 04:11:06;;;;;;;12.50;8.50;;;21.00;68.80;;;;;;214974;1288;22445;-62
2022/10/15 04:16:10;;;;;;;13.10;8.10;;;20.90;69.00;;;;;;214755;1288;22523;-65
2022/10/15 04:21:15;;;;;;;15.60;9.00;;;20.90;69.00;;;;;;214969;1286;24865;-62
2022/10/15 04:26:23;;;;;;;14.60;9.10;;;20.90;68.60;;;;;;214683;1291;22440;-62
2022/10/15 04:31:27;;;;;;;10.60;7.50;;;20.90;68.30;;;;;;214970;1288;22458;-63
2022/10/15 04:36:32;;;;;;;13.20;8.50;;;20.90;68.60;;;;;;215058;1286;22477;-60
2022/10/15 04:41:48;;;;;;;9.70;7.50;;;20.90;68.80;;;;;;214922;1286;22465;-61
2022/10/15 04:47:01;;;;;;;12.90;8.10;;;20.90;68.40;;;;;;214750;1291;24382;-63
2022/10/15 04:52:16;;;;;;;15.90;7.50;;;20.90;68.40;;;;;;214954;1292;24877;-63
2022/10/15 04:57:31;;;;;;;11.70;7.90;;;21.00;68.40;;;;;;214617;1287;22459;-62
2022/10/15 05:02:41;;;;;;;14.80;8.60;;;20.90;68.90;;;;;;214970;1289;22477;-60
2022/10/15 05:07:59;;;;;;;10.30;7.10;;;20.90;68.50;;;;;;214930;1292;25198;-63
2022/10/15 05:13:03;;;;;;;12.50;7.70;;;20.90;68.60;;;;;;214760;1276;22484;-60
2022/10/15 05:18:08;;;;;;;10.30;7.20;;;20.90;68.50;;;;;;214762;1301;22470;-63
2022/10/15 05:23:20;;;;;;;11.80;7.60;;;20.90;68.90;;;;;;214679;1292;25376;-58
2022/10/15 05:28:31;;;;;;;;;;;20.90;68.50;;;;;;215012;1295;25242;-61
2022/10/15 05:33:37;;;;;;;10.50;7.10;;;20.90;68.60;;;;;;215054;1284;22462;-64
2022/10/15 05:38:40;;;;;;;12.00;7.80;;;20.90;68.90;;;;;;214737;1300;26440;-66
2022/10/15 05:43:52;;;;;;;13.80;8.10;;;20.90;68.60;;;;;;214982;1282;24269;-61
2022/10/15 05:48:59;;;;;;;10.70;7.30;;;20.90;68.50;;;;;;215025;1286;23805;-60
2022/10/15 05:54:03;;;;;;;9.80;7.60;;;20.90;68.90;;;;;;214728;1281;22531;-60
2022/10/15 05:59:06;;;;;;;12.60;7.40;;;20.90;68.40;;;;;;214965;1286;24310;-61
2022/10/15 06:04:14;;;;;;;18.00;7.60;;;20.90;68.80;;;;;;214967;1285;25478;-63
2022/10/15 06:09:18;;;;;;;14.60;7.20;;;21.10;68.80;;;;;;214877;1278;206238;-60
2022/10/15 06:14:30;;;;;;;10.90;7.10;;;21.40;68.40;;;;;;214922;1288;22457;-61
2022/10/15 06:19:35;;;;;;;11.10;6.70;;;21.40;67.50;;;;;;214997;1286;22464;-62
2022/10/15 06:24:39;;;;;;;12.60;6.80;;;21.30;68.90;;;;;;214930;1300;22575;-62
2022/10/15 06:29:44;;;;;;;13.20;7.20;;;21.40;68.50;;;;;;214715;1290;25340;-63
2022/10/15 06:34:49;;;;;;;13.10;7.00;;;21.60;68.40;;;;;;214658;1291;25260;-62
2022/10/15 06:39:53;;;;;;;9.80;6.00;;;21.60;68.40;;;;;;215038;1288;22471;-61
2022/10/15 06:45:00;;;;;;;12.10;6.50;;;21.60;68.30;;;;;;215263;1285;24304;-61
2022/10/15 06:50:05;;;;;;;13.50;6.30;;;21.70;68.30;;;;;;214946;1285;22513;-61
2022/10/15 06:55:12;;;;;;;13.80;6.40;;;21.70;68.40;;;;;;215093;1299;22470;-60
2022/10/15 07:00:34;;;;;;;14.20;6.60;;;21.80;68.80;;;;;;214892;1278;24265;-62
2022/10/15 07:05:42;;;;;;;14.60;6.50;;;21.70;68.50;;;;;;214926;1284;25623;-57
2022/10/15 07:10:51;;;;;;;18.50;7.60;;;21.80;68.30;;;;;;214795;1282;24216;-64
2022/10/15 07:16:08;;;;;;;18.30;7.40;;;21.80;67.90;;;;;;214970;1294;22463;-63
2022/10/15 07:21:11;;;;;;;15.30;7.50;;;21.90;67.80;;;;;;214966;1286;24306;-58
2022/10/15 07:26:15;;;;;;;17.20;7.50;;;21.80;67.60;;;;;;214782;1296;22467;-61
2022/10/15 07:31:20;;;;;;;18.20;7.20;;;21.80;67.50;;;;;;214789;1299;25194;-62
2022/10/15 07:36:25;;;;;;;11.60;7.40;;;21.70;67.30;;;;;;215067;1284;22495;-62
2022/10/15 07:41:31;;;;;;;15.90;7.30;;;21.70;67.20;;;;;;214864;1285;24207;-61
2022/10/15 07:46:35;;;;;;;13.70;7.70;;;21.70;67.00;;;;;;215033;1294;22473;-61
2022/10/15 07:51:41;;;;;;;10.60;6.80;;;21.60;66.80;;;;;;214829;1284;22483;-62
2022/10/15 07:56:44;;;;;;;12.20;7.90;;;21.70;67.10;;;;;;215067;1274;23046;-63
2022/10/15 08:01:50;;;;;;;13.70;7.50;;;21.60;66.40;;;;;;215150;1281;22583;-62
2022/10/15 08:06:54;;;;;;;15.50;7.60;;;21.60;66.30;;;;;;215093;1281;24318;-62
2022/10/15 08:12:00;;;;;;;12.40;7.90;;;21.70;66.30;;;;;;214726;1284;25549;-65
2022/10/15 08:17:15;;;;;;;11.60;7.40;;;21.60;66.20;;;;;;214716;1284;24263;-62
2022/10/15 08:22:19;;;;;;;16.30;8.40;;;21.60;66.20;;;;;;214595;1299;25472;-63
2022/10/15 08:27:40;;;;;;;14.00;7.60;;;21.60;66.00;;;;;;214767;1281;23569;-60
2022/10/15 08:32:45;;;;;;;14.80;8.10;;;21.60;66.00;;;;;;214956;1285;23638;-61
2022/10/15 08:37:53;;;;;;;11.00;8.20;;;21.50;65.90;;;;;;214807;1281;22466;-61
2022/10/15 08:42:56;;;;;;;11.20;8.80;;;21.60;66.30;;;;;;214767;1286;24950;-60
2022/10/15 08:48:10;;;;;;;12.10;8.20;;;21.50;66.00;;;;;;214749;1282;25116;-65
2022/10/15 08:53:21;;;;;;;12.20;8.20;;;21.50;65.90;;;;;;214712;1284;22480;-61
2022/10/15 08:58:37;;;;;;;10.10;7.80;;;21.50;66.30;;;;;;214720;1295;25528;-61
2022/10/15 09:04:21;;;;;;;10.50;8.50;;;21.50;65.80;;;;;;214727;1287;24209;-62
2022/10/15 09:09:38;;;;;;;13.50;8.80;;;21.50;65.90;;;;;;214496;1294;23872;-61
2022/10/15 09:14:45;;;;;;;13.40;9.00;;;21.40;65.90;;;;;;214685;1291;22584;-63
2022/10/15 09:19:54;;;;;;;12.60;8.70;;;21.40;65.90;;;;;;215060;1288;23927;-61
2022/10/15 09:25:21;;;;;;;10.10;7.90;;;21.40;65.90;;;;;;215104;1284;24223;-61
2022/10/15 09:30:36;;;;;;;13.20;9.10;;;21.40;65.90;;;;;;215006;1291;22587;-62
2022/10/15 09:36:14;;;;;;;11.50;8.90;;;21.40;66.30;;;;;;215081;1297;22451;-66
2022/10/15 09:41:32;;;;;;;10.90;9.10;;;21.40;65.90;;;;;;214581;1280;22516;-63
2022/10/15 09:46:43;;;;;;;15.00;10.10;;;21.30;65.90;;;;;;215085;1280;22488;-63
2022/10/15 09:51:56;;;;;;;10.40;8.90;;;21.30;65.90;;;;;;214956;1286;22465;-60
2022/10/15 09:56:59;;;;;;;11.60;9.30;;;21.30;66.30;;;;;;214980;1284;24229;-61
2022/10/15 10:02:19;;;;;;;12.10;9.00;;;21.30;66.00;;;;;;215030;1284;26028;-60
2022/10/15 10:07:34;;;;;;;12.60;9.60;;;21.30;66.00;;;;;;215043;1294;22509;-62
2022/10/15 10:12:41;;;;;;;13.30;9.70;;;21.30;66.00;;;;;;214795;1285;22477;-63
2022/10/15 10:17:52;;;;;;;10.80;9.30;;;21.30;66.30;;;;;;214800;1284;24336;-62
2022/10/15 10:23:00;;;;;;;11.80;9.80;;;21.30;66.00;;;;;;215016;1286;23814;-61
2022/10/15 10:28:13;;;;;;;13.50;9.50;;;21.30;66.00;;;;;;215017;1300;25363;-60
2022/10/15 10:33:28;;;;;;;16.10;8.50;;;21.30;66.00;;;;;;214618;1300;22530;-59
2022/10/15 10:38:35;;;;;;;13.10;8.20;;;21.30;65.60;;;;;;215038;1293;25258;-60
2022/10/15 10:43:51;;;;;;;13.80;9.00;;;21.30;66.20;;;;;;214871;1286;23767;-60
2022/10/15 10:48:55;;;;;;;12.70;7.70;;;21.30;66.20;;;;;;215005;1285;22488;-62
2022/10/15 10:54:13;;;;;;;12.60;9.40;;;21.30;66.60;;;;;;215025;1275;24962;-58
2022/10/15 10:59:29;;;;;;;12.70;9.20;;;21.30;66.70;;;;;;214794;1283;22838;-58
2022/10/15 11:04:34;;;;;;;19.40;10.00;;;21.40;66.60;;;;;;215710;1281;23616;-56
2022/10/15 11:09:52;;;;;;;16.70;9.10;;;21.30;66.50;;;;;;214653;1278;22512;-55
2022/10/15 11:15:17;;;;;;;11.60;8.30;;;21.30;66.90;;;;;;214833;1280;24242;-55
2022/10/15 11:20:52;;;;;;;15.00;9.50;;;21.40;66.60;;;;;;214702;1290;24391;-55
2022/10/15 11:26:29;;;;;;;11.30;8.80;;;21.40;66.60;;;;;;214295;1290;22637;-57
2022/10/15 11:31:53;;;;;;;15.90;9.40;;;21.40;67.00;;;;;;214623;1294;28839;-58
2022/10/15 11:37:43;;;;;;;11.20;9.20;;;21.40;66.50;;;;;;215091;1294;25394;-60
2022/10/15 11:43:09;;;;;;;13.20;9.10;;;21.50;66.40;;;;;;214779;1282;24251;-61
2022/10/15 11:48:39;;;;;;;18.00;10.20;;;21.50;66.20;;;;;;214690;1286;26192;-61
2022/10/15 11:53:52;;;;;;;17.50;9.40;;;21.50;66.40;;;;;;214733;1297;23860;-60
2022/10/15 11:59:03;;;;;;;17.40;8.80;;;21.50;66.50;;;;;;214769;1300;22604;-61
2022/10/15 12:04:37;;;;;;;12.00;8.90;;;21.50;66.50;;;;;;214931;1286;25258;-62
2022/10/15 12:09:47;;;;;;;15.40;8.80;;;21.50;66.60;;;;;;217265;1294;22461;-59
2022/10/15 12:15:18;;;;;;;19.30;8.70;;;21.50;66.90;;;;;;214795;1278;23469;-60
2022/10/15 12:20:22;;;;;;;14.80;9.50;;;21.60;68.10;;;;;;214869;1284;22465;-64
2022/10/15 12:25:34;;;;;;;13.40;7.70;;;21.60;69.00;;;;;;214967;1292;22516;-62
2022/10/15 12:30:41;;;;;;;11.70;7.80;;;21.60;69.20;;;;;;214856;1300;24318;-61
2022/10/15 12:35:53;;;;;;;15.50;9.10;;;21.60;69.60;;;;;;214948;1285;22622;-60
2022/10/15 12:41:01;;;;;;;12.50;8.30;;;21.60;69.20;;;;;;214743;1275;22470;-67
2022/10/15 12:46:10;;;;;;;15.10;9.20;;;21.60;69.00;;;;;;214974;1281;22687;-64
2022/10/15 12:51:23;;;;;;;14.30;8.60;;;21.60;68.70;;;;;;214981;1298;25458;-60
2022/10/15 12:56:47;;;;;;;13.20;8.10;;;21.60;68.40;;;;;;214848;1284;24208;-62
2022/10/15 13:01:53;;;;;;;13.20;8.50;;;21.60;68.20;;;;;;214964;1284;22473;-60
2022/10/15 13:07:02;;;;;;;13.70;8.40;;;21.60;68.00;;;;;;214889;1286;23886;-68
2022/10/15 13:12:25;;;;;;;10.90;8.40;;;21.70;68.00;;;;;;214837;1293;25408;-61
2022/10/15 13:17:30;;;;;;;14.60;8.40;;;21.60;67.80;;;;;;215031;1286;26031;-60
2022/10/15 13:22:35;;;;;;;14.10;8.90;;;21.60;67.70;;;;;;214903;1282;22465;-61
2022/10/15 13:27:39;;;;;;;10.40;8.20;;;21.60;67.60;;;;;;215087;1292;22590;-61
2022/10/15 13:32:49;;;;;;;18.50;10.00;;;21.60;67.90;;;;;;214972;1284;25355;-60
2022/10/15 13:37:52;;;;;;;10.70;8.50;;;21.60;67.50;;;;;;215055;1287;22493;-60
2022/10/15 13:43:07;;;;;;;12.70;8.60;;;21.70;67.90;;;;;;214954;1297;25156;-61
2022/10/15 13:48:12;;;;;;;12.60;7.80;;;21.70;67.50;;;;;;215139;1281;22590;-64
2022/10/15 13:53:30;;;;;;;16.80;9.50;;;21.60;67.50;;;;;;215322;1287;25172;-61
2022/10/15 13:58:40;;;;;;;12.90;8.70;;;21.60;67.40;;;;;;214592;1280;24219;-59
2022/10/15 14:04:11;;;;;;;10.90;8.60;;;21.60;67.30;;;;;;214537;1295;25406;-60
2022/10/15 14:09:29;;;;;;;10.90;8.90;;;21.50;67.30;;;;;;214587;1283;22488;-60
2022/10/15 14:14:45;;;;;;;11.60;9.10;;;21.50;67.60;;;;;;214823;1282;24375;-60
2022/10/15 14:19:55;;;;;;;11.80;9.50;;;21.50;67.40;;;;;;214848;1281;22471;-60
2022/10/15 14:25:23;;;;;;;12.30;9.00;;;21.50;67.40;;;;;;214693;1294;22612;-60
2022/10/15 14:30:38;;;;;;;10.80;8.80;;;21.50;67.40;;;;;;214937;1278;24020;-61
2022/10/15 14:35:43;;;;;;;12.10;8.70;;;21.50;67.40;;;;;;214964;1288;22524;-60
2022/10/15 14:41:02;;;;;;;12.10;9.10;;;21.50;66.80;;;;;;214956;1292;22489;-63
2022/10/15 14:46:17;;;;;;;12.20;9.40;;;21.50;67.10;;;;;;215860;1287;25262;-60
2022/10/15 14:51:24;;;;;;;13.70;8.70;;;21.50;67.30;;;;;;214811;1282;22492;-59
2022/10/15 14:56:31;;;;;;;13.70;9.20;;;21.50;67.60;;;;;;214740;1294;22864;-61
2022/10/15 15:01:52;;;;;;;12.80;9.80;;;21.40;67.20;;;;;;214736;1281;22476;-60
2022/10/15 15:07:00;;;;;;;12.80;10.10;;;21.40;67.20;;;;;;214740;1292;23887;-60
2022/10/15 15:12:12;;;;;;;15.90;9.40;;;21.40;67.30;;;;;;214769;1294;23854;-60
2022/10/15 15:17:23;;;;;;;12.80;9.70;;;21.40;67.10;;;;;;214956;1275;25516;-60
2022/10/15 15:22:32;;;;;;;13.40;9.50;;;21.40;67.20;;;;;;214791;1281;24230;-59
2022/10/15 15:27:36;;;;;;;11.40;9.00;;;21.40;67.30;;;;;;214991;1297;26749;-59
2022/10/15 15:32:46;;;;;;;15.60;10.10;;;21.40;67.30;;;;;;214564;1294;24374;-61
2022/10/15 15:37:52;;;;;;;12.50;9.70;;;21.40;67.40;;;;;;214863;1275;22466;-59
2022/10/15 15:42:56;;;;;;;14.90;10.60;;;21.30;67.50;;;;;;214891;1284;22455;-60
2022/10/15 15:48:02;;;;;;;12.70;9.80;;;21.30;67.40;;;;;;214643;1285;24296;-61
2022/10/15 15:53:06;;;;;;;13.40;10.60;;;21.40;67.30;;;;;;214702;1291;22474;-62
2022/10/15 15:58:09;;;;;;;14.20;10.90;;;21.30;67.40;;;;;;214750;1288;25352;-60
2022/10/15 16:03:13;;;;;;;12.50;9.90;;;21.30;67.50;;;;;;214497;1286;25230;-58
2022/10/15 16:08:17;;;;;;;15.30;10.60;;;21.30;67.50;;;;;;214604;1275;24829;-60
2022/10/15 16:13:25;;;;;;;13.50;10.10;;;21.30;67.50;;;;;;214710;1295;22462;-64
2022/10/15 16:18:32;;;;;;;13.30;10.00;;;21.30;67.40;;;;;;222980;1287;22072;-62
2022/10/15 16:23:39;;;;;;;14.70;10.40;;;21.40;67.30;;;;;;217419;1300;25261;-61
2022/10/15 16:28:49;;;;;;;14.50;9.90;;;21.40;67.30;;;;;;222480;1296;22958;-62
2022/10/15 16:33:56;;;;;;;12.00;10.20;;;21.40;67.20;;;;;;214898;1292;22672;-62
2022/10/15 16:39:06;;;;;;;15.50;11.20;;;21.40;67.90;;;;;;214732;1285;22465;-60
2022/10/15 16:44:21;;;;;;;17.30;11.80;;;21.40;67.80;;;;;;215026;1284;23237;-64
2022/10/15 16:49:33;;;;;;;13.50;10.60;;;21.30;68.00;;;;;;214910;1279;23554;-63
2022/10/15 16:54:40;;;;;;;18.70;12.20;;;21.30;67.80;;;;;;214766;1285;25356;-61
2022/10/15 17:00:01;;;;;;;13.70;11.30;;;21.40;67.60;;;;;;214923;1291;24291;-61
2022/10/15 17:05:13;;;;;;;16.20;11.30;;;21.30;67.50;;;;;;215038;1295;24241;-61
2022/10/15 17:10:30;;;;;;;15.10;11.10;;;21.30;67.50;;;;;;215076;1281;22499;-62
2022/10/15 17:15:40;;;;;;;14.90;11.30;;;21.30;67.40;;;;;;215137;1293;25205;-62
2022/10/15 17:20:46;;;;;;;16.00;12.30;;;21.30;67.30;;;;;;215048;1289;22604;-63
2022/10/15 17:25:55;;;;;;;13.90;11.60;;;21.30;67.80;;;;;;214928;1281;24224;-62
2022/10/15 17:31:10;;;;;;;18.90;12.60;;;21.30;67.20;;;;;;214939;1286;26613;-56
2022/10/15 17:36:43;;;;;;;30.80;20.60;;;21.30;67.20;;;;;;214995;1282;22680;-61
2022/10/15 17:42:20;;;;;;;43.40;32.50;;;21.30;67.20;;;;;;214977;1294;22465;-62
2022/10/15 17:47:40;;;;;;;40.00;27.90;;;21.30;67.30;;;;;;215057;1292;25504;-64
2022/10/15 17:52:55;;;;;;;32.90;26.10;;;21.40;67.30;;;;;;215025;1291;23600;-65
2022/10/15 17:58:10;;;;;;;33.00;26.40;;;21.30;67.30;;;;;;215028;1300;25445;-63
2022/10/15 18:03:18;;;;;;;30.40;24.60;;;21.40;68.60;;;;;;214915;1297;22432;-62
2022/10/15 18:08:21;;;;;;;32.70;24.80;;;21.40;68.80;;;;;;214815;1300;185093;-61
2022/10/15 18:13:25;;;;;;;31.70;24.20;;;21.40;68.80;;;;;;214889;1292;25349;-59
2022/10/15 18:18:31;;;;;;;31.30;23.30;;;21.40;68.80;;;;;;214919;1300;25269;-59
2022/10/15 18:23:38;;;;;;;30.60;22.70;;;21.30;68.90;;;;;;215066;1286;22967;-62
2022/10/15 18:28:49;;;;;;;29.80;22.80;;;21.40;68.80;;;;;;215014;1291;25282;-61
2022/10/15 18:33:54;;;;;;;29.80;22.10;;;21.40;68.50;;;;;;214961;1282;22485;-63
2022/10/15 18:38:59;;;;;;;30.70;22.20;;;21.40;68.40;;;;;;215194;1295;22511;-60
2022/10/15 18:44:11;;;;;;;29.40;20.60;;;21.40;68.70;;;;;;214762;1300;26499;-61
2022/10/15 18:49:16;;;;;;;26.80;20.40;;;21.40;68.60;;;;;;215358;1286;24228;-61
2022/10/15 18:54:21;;;;;;;27.80;20.50;;;21.40;68.80;;;;;;214983;1286;22536;-62
2022/10/15 18:59:34;;;;;;;30.30;22.80;;;21.40;68.50;;;;;;215022;1293;24167;-61
2022/10/15 19:04:42;;;;;;;33.70;20.10;;;21.50;68.60;;;;;;214962;1286;22587;-62
2022/10/15 19:09:49;;;;;;;23.70;18.70;;;21.50;68.40;;;;;;214951;1300;22464;-63
2022/10/15 19:14:57;;;;;;;31.00;20.70;;;21.40;68.40;;;;;;214700;1300;22833;-58
2022/10/15 19:20:01;;;;;;;32.50;20.00;;;21.40;68.50;;;;;;215057;1289;22493;-65
2022/10/15 19:25:07;;;;;;;30.10;18.90;;;21.50;69.20;;;;;;214986;1292;24231;-62
2022/10/15 19:30:12;;;;;;;29.20;18.80;;;21.50;69.60;;;;;;215213;1284;22468;-63
2022/10/15 19:35:16;;;;;;;30.70;18.40;;;21.50;69.30;;;;;;215010;1299;25395;-63
2022/10/15 19:40:20;;;;;;;28.80;18.30;;;21.40;69.70;;;;;;214798;1300;22463;-61
2022/10/15 19:45:23;;;;;;;32.50;18.20;;;21.40;69.60;;;;;;214965;1284;22510;-61
2022/10/15 19:50:27;;;;;;;36.10;20.10;;;21.40;69.70;;;;;;214950;1300;22473;-63
2022/10/15 19:55:34;;;;;;;37.70;18.60;;;21.40;69.80;;;;;;214830;1290;22516;-61
2022/10/15 20:00:37;;;;;;;25.50;18.70;;;21.40;69.90;;;;;;215014;1285;24229;-61
2022/10/15 20:05:45;;;;;;;31.10;18.80;;;21.30;69.40;;;;;;214939;1285;22463;-61
2022/10/15 20:10:52;;;;;;;;;;;21.40;69.20;;;;;;215023;1281;22451;-55
2022/10/15 20:16:02;;;;;;;32.60;18.70;;;21.40;70.90;;;;;;215062;1300;22935;-55
2022/10/15 20:21:12;;;;;;;34.70;19.70;;;21.40;70.80;;;;;;214771;1286;24491;-54
2022/10/15 20:26:18;;;;;;;34.00;18.50;;;21.40;70.20;;;;;;214892;1290;22940;-55
2022/10/15 20:31:27;;;;;;;27.80;18.70;;;21.40;70.10;;;;;;215024;1281;22472;-54
2022/10/15 20:36:40;;;;;;;29.40;19.00;;;21.40;69.90;;;;;;214511;1285;22501;-55
2022/10/15 20:41:43;;;;;;;27.30;18.20;;;21.40;69.70;;;;;;214514;1292;24275;-56
2022/10/15 20:46:56;;;;;;;23.20;18.00;;;21.40;69.60;;;;;;214754;1284;22581;-54
2022/10/15 20:52:02;;;;;;;21.80;17.10;;;21.40;69.60;;;;;;214750;1278;24260;-53
2022/10/15 20:57:06;;;;;;;23.70;17.40;;;21.30;69.70;;;;;;214855;1294;25200;-55
2022/10/15 21:02:09;;;;;;;32.50;18.10;;;21.30;69.70;;;;;;214672;1300;25292;-55
2022/10/15 21:07:13;;;;;;;30.50;18.00;;;21.30;69.70;;;;;;214646;1299;25629;-54
2022/10/15 21:12:17;;;;;;;27.00;17.00;;;21.30;69.50;;;;;;214766;1296;23019;-55
2022/10/15 21:17:22;;;;;;;31.50;17.80;;;21.30;69.80;;;;;;214795;1294;24214;-56
2022/10/15 21:22:26;;;;;;;20.90;17.00;;;21.30;69.80;;;;;;214692;1288;22609;-56
2022/10/15 21:27:29;;;;;;;23.50;16.80;;;21.30;70.10;;;;;;214748;1286;23778;-55
2022/10/15 21:32:33;;;;;;;24.10;16.60;;;21.30;69.50;;;;;;214667;1290;25265;-53
2022/10/15 21:37:37;;;;;;;22.90;16.00;;;21.20;70.00;;;;;;214468;1292;22702;-55
2022/10/15 21:42:41;;;;;;;22.80;17.00;;;21.30;70.20;;;;;;214635;1300;26503;-55
2022/10/15 21:47:46;;;;;;;24.50;16.20;;;21.30;70.30;;;;;;214726;1295;24983;-55
2022/10/15 21:52:52;;;;;;;24.70;16.10;;;21.30;70.50;;;;;;215070;1292;22609;-54
2022/10/15 21:57:55;;;;;;;21.90;16.20;;;21.30;70.90;;;;;;215639;1284;25214;-55
2022/10/15 22:03:04;;;;;;;24.50;16.20;;;21.30;70.60;;;;;;214996;1282;24225;-56
2022/10/15 22:08:16;;;;;;;20.90;16.60;;;21.30;70.70;;;;;;215057;1287;22463;-52
2022/10/15 22:13:20;;;;;;;20.50;16.40;;;21.30;70.90;;;;;;214739;1282;22457;-56
2022/10/15 22:18:24;;;;;;;19.70;15.40;;;21.30;71.00;;;;;;214856;1297;22482;-55
2022/10/15 22:23:31;;;;;;;18.60;14.90;;;21.30;71.30;;;;;;214677;1300;25357;-56
2022/10/15 22:28:35;;;;;;;20.70;14.80;;;21.40;71.50;;;;;;215053;1287;22708;-55
2022/10/15 22:33:44;;;;;;;20.10;15.40;;;21.30;72.00;;;;;;214575;1291;25397;-54
2022/10/15 22:38:53;;;;;;;22.60;16.90;;;21.40;71.80;;;;;;214992;1289;22466;-57
2022/10/15 22:44:01;;;;;;;19.60;15.80;;;21.40;72.30;;;;;;214879;1289;22587;-53
2022/10/15 22:49:16;;;;;;;19.00;15.30;;;21.40;72.30;;;;;;215111;1283;22481;-55
2022/10/15 22:54:22;;;;;;;24.80;16.40;;;21.40;72.40;;;;;;214983;1291;22582;-55
2022/10/15 22:59:26;;;;;;;19.50;15.30;;;21.40;72.50;;;;;;214954;1288;25242;-53
2022/10/15 23:04:29;;;;;;;18.00;13.80;;;21.40;72.30;;;;;;215091;1296;22706;-55
2022/10/15 23:09:33;;;;;;;22.40;16.30;;;21.40;72.50;;;;;;214996;1300;26483;-54
2022/10/15 23:14:37;;;;;;;20.40;15.00;;;21.50;72.20;;;;;;215043;1298;22459;-56
2022/10/15 23:19:41;;;;;;;19.60;15.00;;;21.40;72.00;;;;;;214818;1300;22471;-56
2022/10/15 23:24:44;;;;;;;17.00;14.30;;;21.40;71.90;;;;;;214717;1298;23839;-54
2022/10/15 23:29:48;;;;;;;16.90;14.40;;;21.50;71.80;;;;;;214960;1287;24295;-55
2022/10/15 23:35:10;;;;;;;22.00;13.80;;;21.40;71.70;;;;;;214967;1297;25295;-55
2022/10/15 23:40:14;;;;;;;21.10;14.80;;;21.40;71.60;;;;;;215000;1300;26011;-55
2022/10/15 23:45:18;;;;;;;18.10;14.40;;;21.40;71.60;;;;;;215040;1291;22491;-58
2022/10/15 23:50:21;;;;;;;19.60;13.70;;;21.40;71.60;;;;;;215002;1291;22475;-54
2022/10/15 23:55:25;;;;;;;18.10;12.90;;;21.40;71.50;;;;;;215053;1276;22542;-57
